sensor_id;sensor_type;location;lat;lon;timestamp;temperature;humidity
48946;DHT22;34999;50.940;3.998;2023-02-25T00:00:31;3.80;99.90
48946;DHT22;34999;50.940;3.998;2023-02-25T00:03:00;3.80;99.90
48946;DHT22;34999;50.940;3.998;2023-02-25T00:05:28;3.70;99.90
48946;DHT22;34999;50.940;3.998;2023-02-25T00:07:59;3.60;99.90
48946;DHT22;34999;50.940;3.998;2023-02-25T00:10:27;3.60;99.90
48946;DHT22;34999;50.940;3.998;2023-02-25T00:12:55;3.60;99.90
48946;DHT22;34999;50.940;3.998;2023-02-25T00:15:42;3.50;99.90
48946;DHT22;34999;50.940;3.998;2023-02-25T00:18:11;3.50;99.90
48946;DHT22;34999;50.940;3.998;2023-02-25T00:20:39;3.50;99.90
48946;DHT22;34999;50.940;3.998;2023-02-25T00:23:09;3.50;99.90
48946;DHT22;34999;50.940;3.998;2023-02-25T00:25:37;3.50;99.90
48946;DHT22;34999;50.940;3.998;2023-02-25T00:28:05;3.60;99.90
48946;DHT22;34999;50.940;3.998;2023-02-25T00:30:34;3.60;99.90
48946;DHT22;34999;50.940;3.998;2023-02-25T00:33:05;3.60;99.90
48946;DHT22;34999;50.940;3.998;2023-02-25T00:39:21;3.50;99.90
48946;DHT22;34999;50.940;3.998;2023-02-25T00:41:50;3.50;99.90
48946;DHT22;34999;50.940;3.998;2023-02-25T00:44:19;3.40;99.90
48946;DHT22;34999;50.940;3.998;2023-02-25T00:46:48;3.40;99.90
48946;DHT22;34999;50.940;3.998;2023-02-25T00:49:16;3.40;99.90
48946;DHT22;34999;50.940;3.998;2023-02-25T00:51:58;3.40;99.90
48946;DHT22;34999;50.940;3.998;2023-02-25T00:54:28;3.40;99.90
48946;DHT22;34999;50.940;3.998;2023-02-25T00:56:56;3.40;99.90
48946;DHT22;34999;50.940;3.998;2023-02-25T00:59:24;3.40;99.90
48946;DHT22;34999;50.940;3.998;2023-02-25T01:01:53;3.50;99.90
48946;DHT22;34999;50.940;3.998;2023-02-25T01:04:21;3.50;99.90
48946;DHT22;34999;50.940;3.998;2023-02-25T01:06:49;3.70;99.90
48946;DHT22;34999;50.940;3.998;2023-02-25T01:09:20;3.70;99.90
48946;DHT22;34999;50.940;3.998;2023-02-25T01:11:49;3.80;99.90
48946;DHT22;34999;50.940;3.998;2023-02-25T01:14:20;3.80;99.90
48946;DHT22;34999;50.940;3.998;2023-02-25T01:16:50;3.80;99.90
48946;DHT22;34999;50.940;3.998;2023-02-25T01:19:20;3.80;99.90
48946;DHT22;34999;50.940;3.998;2023-02-25T01:21:52;3.80;99.90
48946;DHT22;34999;50.940;3.998;2023-02-25T01:24:22;3.70;99.90
48946;DHT22;34999;50.940;3.998;2023-02-25T01:26:53;3.70;99.90
48946;DHT22;34999;50.940;3.998;2023-02-25T01:29:24;3.60;99.90
48946;DHT22;34999;50.940;3.998;2023-02-25T01:31:54;3.50;99.90
48946;DHT22;34999;50.940;3.998;2023-02-25T01:34:24;3.40;99.90
48946;DHT22;34999;50.940;3.998;2023-02-25T01:36:53;3.30;99.90
48946;DHT22;34999;50.940;3.998;2023-02-25T01:39:22;3.20;99.90
48946;DHT22;34999;50.940;3.998;2023-02-25T01:41:55;3.20;99.90
48946;DHT22;34999;50.940;3.998;2023-02-25T01:44:28;3.10;99.90
48946;DHT22;34999;50.940;3.998;2023-02-25T01:46:56;3.10;99.90
48946;DHT22;34999;50.940;3.998;2023-02-25T01:49:28;3.00;99.90
48946;DHT22;34999;50.940;3.998;2023-02-25T01:52:02;3.00;99.90
48946;DHT22;34999;50.940;3.998;2023-02-25T01:54:32;2.90;99.90
48946;DHT22;34999;50.940;3.998;2023-02-25T01:57:05;2.90;99.90
48946;DHT22;34999;50.940;3.998;2023-02-25T01:59:35;2.90;99.90
48946;DHT22;34999;50.940;3.998;2023-02-25T02:02:04;2.90;99.90
48946;DHT22;34999;50.940;3.998;2023-02-25T02:04:35;2.90;99.90
48946;DHT22;34999;50.940;3.998;2023-02-25T02:07:05;2.90;99.90
48946;DHT22;34999;50.940;3.998;2023-02-25T02:09:34;2.90;99.90
48946;DHT22;34999;50.940;3.998;2023-02-25T02:12:05;3.00;99.90
48946;DHT22;34999;50.940;3.998;2023-02-25T02:14:36;3.10;99.90
48946;DHT22;34999;50.940;3.998;2023-02-25T02:17:14;3.30;99.90
48946;DHT22;34999;50.940;3.998;2023-02-25T02:20:08;3.40;99.90
48946;DHT22;34999;50.940;3.998;2023-02-25T02:31:40;3.40;99.90
48946;DHT22;34999;50.940;3.998;2023-02-25T02:34:21;3.40;99.90
48946;DHT22;34999;50.940;3.998;2023-02-25T02:37:03;3.30;99.90
48946;DHT22;34999;50.940;3.998;2023-02-25T02:39:41;3.30;99.90
48946;DHT22;34999;50.940;3.998;2023-02-25T02:42:20;3.30;99.90
48946;DHT22;34999;50.940;3.998;2023-02-25T02:44:56;3.30;99.90
48946;DHT22;34999;50.940;3.998;2023-02-25T02:47:30;3.40;99.90
48946;DHT22;34999;50.940;3.998;2023-02-25T02:50:03;3.40;99.90
48946;DHT22;34999;50.940;3.998;2023-02-25T02:52:34;3.40;99.90
48946;DHT22;34999;50.940;3.998;2023-02-25T02:55:06;3.40;99.90
48946;DHT22;34999;50.940;3.998;2023-02-25T02:57:37;3.40;99.90
48946;DHT22;34999;50.940;3.998;2023-02-25T03:00:11;3.40;99.90
48946;DHT22;34999;50.940;3.998;2023-02-25T03:02:49;3.40;99.90
48946;DHT22;34999;50.940;3.998;2023-02-25T03:05:19;3.40;99.90
48946;DHT22;34999;50.940;3.998;2023-02-25T03:07:54;3.50;99.90
48946;DHT22;34999;50.940;3.998;2023-02-25T03:10:24;3.50;99.90
48946;DHT22;34999;50.940;3.998;2023-02-25T03:12:54;3.50;99.90
48946;DHT22;34999;50.940;3.998;2023-02-25T03:19:14;3.50;99.90
48946;DHT22;34999;50.940;3.998;2023-02-25T03:25:51;3.50;99.90
48946;DHT22;34999;50.940;3.998;2023-02-25T03:28:27;3.50;99.90
48946;DHT22;34999;50.940;3.998;2023-02-25T03:31:00;3.50;99.90
48946;DHT22;34999;50.940;3.998;2023-02-25T03:33:36;3.50;99.90
48946;DHT22;34999;50.940;3.998;2023-02-25T03:36:11;3.50;99.90
48946;DHT22;34999;50.940;3.998;2023-02-25T03:38:44;3.40;99.90
48946;DHT22;34999;50.940;3.998;2023-02-25T03:41:14;3.40;99.90
48946;DHT22;34999;50.940;3.998;2023-02-25T03:43:46;3.30;99.90
48946;DHT22;34999;50.940;3.998;2023-02-25T03:46:17;3.10;99.90
48946;DHT22;34999;50.940;3.998;2023-02-25T03:48:48;3.10;99.90
48946;DHT22;34999;50.940;3.998;2023-02-25T03:51:22;3.00;99.90
48946;DHT22;34999;50.940;3.998;2023-02-25T03:53:51;3.00;99.90
48946;DHT22;34999;50.940;3.998;2023-02-25T03:56:20;3.10;99.90
48946;DHT22;34999;50.940;3.998;2023-02-25T03:58:48;3.10;99.90
48946;DHT22;34999;50.940;3.998;2023-02-25T04:01:22;3.10;99.90
48946;DHT22;34999;50.940;3.998;2023-02-25T04:03:51;3.20;99.90
48946;DHT22;34999;50.940;3.998;2023-02-25T04:06:22;3.20;99.90
48946;DHT22;34999;50.940;3.998;2023-02-25T04:08:51;3.20;99.90
48946;DHT22;34999;50.940;3.998;2023-02-25T04:11:19;3.30;99.90
48946;DHT22;34999;50.940;3.998;2023-02-25T04:13:47;3.30;99.90
48946;DHT22;34999;50.940;3.998;2023-02-25T04:16:16;3.30;99.90
48946;DHT22;34999;50.940;3.998;2023-02-25T04:18:44;3.30;99.90
48946;DHT22;34999;50.940;3.998;2023-02-25T04:21:25;3.40;99.90
48946;DHT22;34999;50.940;3.998;2023-02-25T04:23:53;3.40;99.90
48946;DHT22;34999;50.940;3.998;2023-02-25T04:26:22;3.40;99.90
48946;DHT22;34999;50.940;3.998;2023-02-25T04:28:51;3.40;99.90
48946;DHT22;34999;50.940;3.998;2023-02-25T04:31:19;3.40;99.90
48946;DHT22;34999;50.940;3.998;2023-02-25T04:33:48;3.40;99.90
48946;DHT22;34999;50.940;3.998;2023-02-25T04:36:28;3.50;99.90
48946;DHT22;34999;50.940;3.998;2023-02-25T04:38:58;3.50;99.90
48946;DHT22;34999;50.940;3.998;2023-02-25T04:41:29;3.50;99.90
48946;DHT22;34999;50.940;3.998;2023-02-25T04:43:58;3.50;99.90
48946;DHT22;34999;50.940;3.998;2023-02-25T04:50:17;3.50;99.90
48946;DHT22;34999;50.940;3.998;2023-02-25T04:52:47;3.50;99.90
48946;DHT22;34999;50.940;3.998;2023-02-25T04:55:15;3.50;99.90
48946;DHT22;34999;50.940;3.998;2023-02-25T04:57:44;3.60;99.90
48946;DHT22;34999;50.940;3.998;2023-02-25T05:00:14;3.60;99.90
48946;DHT22;34999;50.940;3.998;2023-02-25T05:02:45;3.60;99.90
48946;DHT22;34999;50.940;3.998;2023-02-25T05:05:14;3.60;99.90
48946;DHT22;34999;50.940;3.998;2023-02-25T05:07:43;3.60;99.90
48946;DHT22;34999;50.940;3.998;2023-02-25T05:10:14;3.60;99.90
48946;DHT22;34999;50.940;3.998;2023-02-25T05:12:42;3.60;99.90
48946;DHT22;34999;50.940;3.998;2023-02-25T05:15:11;3.60;99.90
48946;DHT22;34999;50.940;3.998;2023-02-25T05:17:39;3.60;99.90
48946;DHT22;34999;50.940;3.998;2023-02-25T05:20:09;3.50;99.90
48946;DHT22;34999;50.940;3.998;2023-02-25T05:22:39;3.50;99.90
48946;DHT22;34999;50.940;3.998;2023-02-25T05:25:08;3.40;99.90
48946;DHT22;34999;50.940;3.998;2023-02-25T05:27:38;3.30;99.90
48946;DHT22;34999;50.940;3.998;2023-02-25T05:30:07;3.40;99.90
48946;DHT22;34999;50.940;3.998;2023-02-25T05:32:37;3.40;99.90
48946;DHT22;34999;50.940;3.998;2023-02-25T05:35:07;3.40;99.90
48946;DHT22;34999;50.940;3.998;2023-02-25T05:37:36;3.50;99.90
48946;DHT22;34999;50.940;3.998;2023-02-25T05:40:06;3.50;99.90
48946;DHT22;34999;50.940;3.998;2023-02-25T05:42:35;3.60;99.90
48946;DHT22;34999;50.940;3.998;2023-02-25T05:45:06;3.60;99.90
48946;DHT22;34999;50.940;3.998;2023-02-25T05:47:35;3.60;99.90
48946;DHT22;34999;50.940;3.998;2023-02-25T05:50:03;3.70;99.90
48946;DHT22;34999;50.940;3.998;2023-02-25T05:52:32;3.70;99.90
48946;DHT22;34999;50.940;3.998;2023-02-25T05:55:00;3.70;99.90
48946;DHT22;34999;50.940;3.998;2023-02-25T05:57:29;3.70;99.90
48946;DHT22;34999;50.940;3.998;2023-02-25T05:59:57;3.70;99.90
48946;DHT22;34999;50.940;3.998;2023-02-25T06:06:16;3.60;99.90
48946;DHT22;34999;50.940;3.998;2023-02-25T06:08:50;3.50;99.90
48946;DHT22;34999;50.940;3.998;2023-02-25T06:11:20;3.40;99.90
48946;DHT22;34999;50.940;3.998;2023-02-25T06:13:49;3.40;99.90
48946;DHT22;34999;50.940;3.998;2023-02-25T06:16:18;3.40;99.90
48946;DHT22;34999;50.940;3.998;2023-02-25T06:18:48;3.40;99.90
48946;DHT22;34999;50.940;3.998;2023-02-25T06:21:18;3.40;99.90
48946;DHT22;34999;50.940;3.998;2023-02-25T06:23:47;3.40;99.90
48946;DHT22;34999;50.940;3.998;2023-02-25T06:26:17;3.50;99.90
48946;DHT22;34999;50.940;3.998;2023-02-25T06:32:33;3.50;99.90
48946;DHT22;34999;50.940;3.998;2023-02-25T06:38:50;3.60;99.90
48946;DHT22;34999;50.940;3.998;2023-02-25T06:41:20;3.60;99.90
48946;DHT22;34999;50.940;3.998;2023-02-25T06:43:48;3.60;99.90
48946;DHT22;34999;50.940;3.998;2023-02-25T06:46:20;3.60;99.90
48946;DHT22;34999;50.940;3.998;2023-02-25T06:52:30;3.60;99.90
48946;DHT22;34999;50.940;3.998;2023-02-25T06:58:41;3.70;99.90
48946;DHT22;34999;50.940;3.998;2023-02-25T07:01:11;3.70;99.90
48946;DHT22;34999;50.940;3.998;2023-02-25T07:03:40;3.70;99.90
48946;DHT22;34999;50.940;3.998;2023-02-25T07:06:09;3.80;99.90
48946;DHT22;34999;50.940;3.998;2023-02-25T07:08:39;3.80;99.90
48946;DHT22;34999;50.940;3.998;2023-02-25T07:11:12;3.80;99.90
48946;DHT22;34999;50.940;3.998;2023-02-25T07:13:42;3.90;99.90
48946;DHT22;34999;50.940;3.998;2023-02-25T07:16:11;4.00;99.90
48946;DHT22;34999;50.940;3.998;2023-02-25T07:18:40;4.10;99.90
48946;DHT22;34999;50.940;3.998;2023-02-25T07:21:09;4.10;99.90
48946;DHT22;34999;50.940;3.998;2023-02-25T07:23:38;4.10;99.90
48946;DHT22;34999;50.940;3.998;2023-02-25T07:26:08;4.00;99.90
48946;DHT22;34999;50.940;3.998;2023-02-25T07:28:42;3.90;99.90
48946;DHT22;34999;50.940;3.998;2023-02-25T07:31:12;3.90;99.90
48946;DHT22;34999;50.940;3.998;2023-02-25T07:33:41;3.90;99.90
48946;DHT22;34999;50.940;3.998;2023-02-25T07:36:10;4.00;99.90
48946;DHT22;34999;50.940;3.998;2023-02-25T07:38:39;4.00;99.90
48946;DHT22;34999;50.940;3.998;2023-02-25T07:41:09;4.00;99.90
48946;DHT22;34999;50.940;3.998;2023-02-25T07:43:38;4.10;99.90
48946;DHT22;34999;50.940;3.998;2023-02-25T07:46:08;4.20;99.90
48946;DHT22;34999;50.940;3.998;2023-02-25T07:48:37;4.30;99.90
48946;DHT22;34999;50.940;3.998;2023-02-25T07:51:07;4.50;99.90
48946;DHT22;34999;50.940;3.998;2023-02-25T07:53:35;4.80;99.90
48946;DHT22;34999;50.940;3.998;2023-02-25T07:56:05;5.00;99.90
48946;DHT22;34999;50.940;3.998;2023-02-25T07:58:34;5.10;99.90
48946;DHT22;34999;50.940;3.998;2023-02-25T08:01:08;5.20;99.90
48946;DHT22;34999;50.940;3.998;2023-02-25T08:03:37;5.30;99.90
48946;DHT22;34999;50.940;3.998;2023-02-25T08:06:06;5.60;99.90
48946;DHT22;34999;50.940;3.998;2023-02-25T08:08:35;6.00;99.90
48946;DHT22;34999;50.940;3.998;2023-02-25T08:11:04;6.50;99.90
48946;DHT22;34999;50.940;3.998;2023-02-25T08:13:33;7.10;99.90
48946;DHT22;34999;50.940;3.998;2023-02-25T08:16:03;7.70;99.90
48946;DHT22;34999;50.940;3.998;2023-02-25T08:18:33;7.90;99.90
48946;DHT22;34999;50.940;3.998;2023-02-25T08:21:01;7.80;99.90
48946;DHT22;34999;50.940;3.998;2023-02-25T08:23:30;7.50;99.90
48946;DHT22;34999;50.940;3.998;2023-02-25T08:25:59;7.20;99.90
48946;DHT22;34999;50.940;3.998;2023-02-25T08:28:28;7.00;99.90
48946;DHT22;34999;50.940;3.998;2023-02-25T08:31:01;6.70;99.90
48946;DHT22;34999;50.940;3.998;2023-02-25T08:33:31;6.70;99.90
48946;DHT22;34999;50.940;3.998;2023-02-25T08:36:06;7.10;99.90
48946;DHT22;34999;50.940;3.998;2023-02-25T08:38:35;7.50;99.90
48946;DHT22;34999;50.940;3.998;2023-02-25T08:41:05;7.80;99.90
48946;DHT22;34999;50.940;3.998;2023-02-25T08:43:34;8.20;99.90
48946;DHT22;34999;50.940;3.998;2023-02-25T08:46:03;8.40;99.90
48946;DHT22;34999;50.940;3.998;2023-02-25T08:48:33;8.70;99.90
48946;DHT22;34999;50.940;3.998;2023-02-25T08:51:03;9.00;99.90
48946;DHT22;34999;50.940;3.998;2023-02-25T08:53:34;9.00;99.90
48946;DHT22;34999;50.940;3.998;2023-02-25T08:56:05;9.20;99.90
48946;DHT22;34999;50.940;3.998;2023-02-25T08:58:33;9.40;99.90
48946;DHT22;34999;50.940;3.998;2023-02-25T09:01:05;9.30;99.90
48946;DHT22;34999;50.940;3.998;2023-02-25T09:03:39;9.40;99.90
48946;DHT22;34999;50.940;3.998;2023-02-25T09:06:20;9.60;99.90
48946;DHT22;34999;50.940;3.998;2023-02-25T09:08:49;9.60;99.90
48946;DHT22;34999;50.940;3.998;2023-02-25T09:11:18;9.20;99.90
48946;DHT22;34999;50.940;3.998;2023-02-25T09:13:47;8.90;99.90
48946;DHT22;34999;50.940;3.998;2023-02-25T09:16:15;8.90;99.90
48946;DHT22;34999;50.940;3.998;2023-02-25T09:18:46;9.00;99.90
48946;DHT22;34999;50.940;3.998;2023-02-25T09:21:14;8.90;99.90
48946;DHT22;34999;50.940;3.998;2023-02-25T09:23:43;8.70;99.90
48946;DHT22;34999;50.940;3.998;2023-02-25T09:26:13;8.60;99.90
48946;DHT22;34999;50.940;3.998;2023-02-25T09:28:41;8.90;99.90
48946;DHT22;34999;50.940;3.998;2023-02-25T09:31:10;8.90;99.90
48946;DHT22;34999;50.940;3.998;2023-02-25T09:33:38;8.60;99.90
48946;DHT22;34999;50.940;3.998;2023-02-25T09:36:11;8.40;99.90
48946;DHT22;34999;50.940;3.998;2023-02-25T09:38:42;8.10;99.90
48946;DHT22;34999;50.940;3.998;2023-02-25T09:41:20;7.90;99.90
48946;DHT22;34999;50.940;3.998;2023-02-25T09:44:05;7.70;99.90
48946;DHT22;34999;50.940;3.998;2023-02-25T09:46:41;7.60;99.90
48946;DHT22;34999;50.940;3.998;2023-02-25T09:49:17;7.40;99.90
48946;DHT22;34999;50.940;3.998;2023-02-25T09:51:54;7.90;99.90
48946;DHT22;34999;50.940;3.998;2023-02-25T09:58:16;9.50;99.90
48946;DHT22;34999;50.940;3.998;2023-02-25T10:04:36;9.90;99.90
48946;DHT22;34999;50.940;3.998;2023-02-25T10:10:59;9.30;99.90
48946;DHT22;34999;50.940;3.998;2023-02-25T10:13:39;8.40;99.90
48946;DHT22;34999;50.940;3.998;2023-02-25T10:16:24;7.90;99.90
48946;DHT22;34999;50.940;3.998;2023-02-25T10:19:05;7.70;99.90
48946;DHT22;34999;50.940;3.998;2023-02-25T10:21:48;7.70;99.90
48946;DHT22;34999;50.940;3.998;2023-02-25T10:24:25;8.00;99.90
48946;DHT22;34999;50.940;3.998;2023-02-25T10:27:01;8.80;99.90
48946;DHT22;34999;50.940;3.998;2023-02-25T10:29:37;9.70;99.90
48946;DHT22;34999;50.940;3.998;2023-02-25T10:32:17;10.40;99.90
48946;DHT22;34999;50.940;3.998;2023-02-25T10:38:47;11.80;99.90
48946;DHT22;34999;50.940;3.998;2023-02-25T10:45:09;12.50;99.90
48946;DHT22;34999;50.940;3.998;2023-02-25T10:47:42;11.70;99.90
48946;DHT22;34999;50.940;3.998;2023-02-25T10:50:16;10.80;99.90
48946;DHT22;34999;50.940;3.998;2023-02-25T10:52:53;10.50;99.90
48946;DHT22;34999;50.940;3.998;2023-02-25T10:55:27;11.00;99.90
48946;DHT22;34999;50.940;3.998;2023-02-25T11:01:44;12.30;99.90
48946;DHT22;34999;50.940;3.998;2023-02-25T11:04:18;11.70;99.90
48946;DHT22;34999;50.940;3.998;2023-02-25T11:06:47;12.00;99.90
48946;DHT22;34999;50.940;3.998;2023-02-25T11:09:30;12.40;99.90
48946;DHT22;34999;50.940;3.998;2023-02-25T11:12:09;12.00;99.90
48946;DHT22;34999;50.940;3.998;2023-02-25T11:14:38;11.90;99.90
48946;DHT22;34999;50.940;3.998;2023-02-25T11:17:13;11.80;99.90
48946;DHT22;34999;50.940;3.998;2023-02-25T11:19:43;11.30;99.90
48946;DHT22;34999;50.940;3.998;2023-02-25T11:22:16;10.50;99.90
48946;DHT22;34999;50.940;3.998;2023-02-25T11:28:52;9.10;99.90
48946;DHT22;34999;50.940;3.998;2023-02-25T11:35:18;8.10;99.90
48946;DHT22;34999;50.940;3.998;2023-02-25T11:37:47;8.60;99.90
48946;DHT22;34999;50.940;3.998;2023-02-25T11:40:21;9.70;99.90
48946;DHT22;34999;50.940;3.998;2023-02-25T11:43:01;10.50;99.90
48946;DHT22;34999;50.940;3.998;2023-02-25T11:45:32;10.70;99.90
48946;DHT22;34999;50.940;3.998;2023-02-25T11:48:02;10.90;99.90
48946;DHT22;34999;50.940;3.998;2023-02-25T11:50:36;11.00;99.90
48946;DHT22;34999;50.940;3.998;2023-02-25T11:53:27;11.00;99.90
48946;DHT22;34999;50.940;3.998;2023-02-25T11:56:03;11.00;99.90
48946;DHT22;34999;50.940;3.998;2023-02-25T11:58:46;10.90;99.90
48946;DHT22;34999;50.940;3.998;2023-02-25T12:01:22;11.50;99.90
48946;DHT22;34999;50.940;3.998;2023-02-25T12:04:37;12.20;99.90
48946;DHT22;34999;50.940;3.998;2023-02-25T12:14:01;11.90;99.90
48946;DHT22;34999;50.940;3.998;2023-02-25T12:20:10;10.50;99.90
48946;DHT22;34999;50.940;3.998;2023-02-25T12:23:24;10.10;99.90
48946;DHT22;34999;50.940;3.998;2023-02-25T12:26:04;9.70;99.90
48946;DHT22;34999;50.940;3.998;2023-02-25T12:29:03;9.30;99.90
48946;DHT22;34999;50.940;3.998;2023-02-25T12:35:06;8.20;99.90
48946;DHT22;34999;50.940;3.998;2023-02-25T12:37:54;7.70;99.90
48946;DHT22;34999;50.940;3.998;2023-02-25T12:40:44;7.50;99.90
48946;DHT22;34999;50.940;3.998;2023-02-25T12:43:25;7.60;99.90
48946;DHT22;34999;50.940;3.998;2023-02-25T12:46:05;7.70;99.90
48946;DHT22;34999;50.940;3.998;2023-02-25T12:51:44;7.90;99.90
48946;DHT22;34999;50.940;3.998;2023-02-25T12:54:26;8.30;99.90
48946;DHT22;34999;50.940;3.998;2023-02-25T12:57:33;9.10;99.90
48946;DHT22;34999;50.940;3.998;2023-02-25T13:00:21;10.00;99.90
48946;DHT22;34999;50.940;3.998;2023-02-25T13:03:01;10.20;99.90
48946;DHT22;34999;50.940;3.998;2023-02-25T13:05:53;10.00;99.90
48946;DHT22;34999;50.940;3.998;2023-02-25T13:08:41;9.80;99.90
48946;DHT22;34999;50.940;3.998;2023-02-25T13:11:22;9.60;99.90
48946;DHT22;34999;50.940;3.998;2023-02-25T13:14:12;9.60;99.90
48946;DHT22;34999;50.940;3.998;2023-02-25T13:17:00;9.30;99.90
48946;DHT22;34999;50.940;3.998;2023-02-25T13:26:54;9.00;99.90
48946;DHT22;34999;50.940;3.998;2023-02-25T13:29:36;9.30;99.90
48946;DHT22;34999;50.940;3.998;2023-02-25T13:32:19;9.70;99.90
48946;DHT22;34999;50.940;3.998;2023-02-25T13:37:49;10.50;99.90
48946;DHT22;34999;50.940;3.998;2023-02-25T13:40:49;10.60;99.90
48946;DHT22;34999;50.940;3.998;2023-02-25T13:43:50;10.30;99.90
48946;DHT22;34999;50.940;3.998;2023-02-25T13:46:51;9.80;99.90
48946;DHT22;34999;50.940;3.998;2023-02-25T13:52:42;8.70;99.90
48946;DHT22;34999;50.940;3.998;2023-02-25T13:55:34;7.80;99.90
48946;DHT22;34999;50.940;3.998;2023-02-25T13:58:27;7.70;99.90
48946;DHT22;34999;50.940;3.998;2023-02-25T14:01:27;7.50;99.90
48946;DHT22;34999;50.940;3.998;2023-02-25T14:07:42;7.70;99.90
48946;DHT22;34999;50.940;3.998;2023-02-25T14:10:24;7.80;99.90
48946;DHT22;34999;50.940;3.998;2023-02-25T14:15:57;8.00;99.90
48946;DHT22;34999;50.940;3.998;2023-02-25T14:22:28;8.30;99.90
48946;DHT22;34999;50.940;3.998;2023-02-25T14:27:59;7.90;99.90
48946;DHT22;34999;50.940;3.998;2023-02-25T14:30:35;7.80;99.90
48946;DHT22;34999;50.940;3.998;2023-02-25T14:33:38;7.80;99.90
48946;DHT22;34999;50.940;3.998;2023-02-25T14:36:19;7.90;99.90
48946;DHT22;34999;50.940;3.998;2023-02-25T14:39:05;8.00;99.90
48946;DHT22;34999;50.940;3.998;2023-02-25T14:41:49;8.70;99.90
48946;DHT22;34999;50.940;3.998;2023-02-25T14:44:26;8.90;99.90
48946;DHT22;34999;50.940;3.998;2023-02-25T14:47:00;8.50;99.90
48946;DHT22;34999;50.940;3.998;2023-02-25T14:49:32;7.90;99.90
48946;DHT22;34999;50.940;3.998;2023-02-25T14:55:30;7.20;99.90
48946;DHT22;34999;50.940;3.998;2023-02-25T14:58:22;7.00;99.90
48946;DHT22;34999;50.940;3.998;2023-02-25T15:01:02;7.00;99.90
48946;DHT22;34999;50.940;3.998;2023-02-25T15:06:56;7.10;99.90
48946;DHT22;34999;50.940;3.998;2023-02-25T15:10:00;6.90;99.90
48946;DHT22;34999;50.940;3.998;2023-02-25T15:15:51;6.90;99.90
48946;DHT22;34999;50.940;3.998;2023-02-25T15:19:03;6.90;99.90
48946;DHT22;34999;50.940;3.998;2023-02-25T15:21:37;6.80;99.90
48946;DHT22;34999;50.940;3.998;2023-02-25T15:24:36;6.90;99.90
48946;DHT22;34999;50.940;3.998;2023-02-25T15:27:30;7.00;99.90
48946;DHT22;34999;50.940;3.998;2023-02-25T15:30:00;7.10;99.90
48946;DHT22;34999;50.940;3.998;2023-02-25T15:38:41;7.20;99.90
48946;DHT22;34999;50.940;3.998;2023-02-25T15:41:41;7.40;99.90
48946;DHT22;34999;50.940;3.998;2023-02-25T15:44:32;7.40;99.90
48946;DHT22;34999;50.940;3.998;2023-02-25T15:47:26;7.40;99.90
48946;DHT22;34999;50.940;3.998;2023-02-25T15:49:59;7.40;99.90
48946;DHT22;34999;50.940;3.998;2023-02-25T15:52:56;7.40;99.90
48946;DHT22;34999;50.940;3.998;2023-02-25T15:55:35;7.30;99.90
48946;DHT22;34999;50.940;3.998;2023-02-25T15:58:40;7.20;99.90
48946;DHT22;34999;50.940;3.998;2023-02-25T16:01:27;7.20;99.90
48946;DHT22;34999;50.940;3.998;2023-02-25T16:03:56;7.10;99.90
48946;DHT22;34999;50.940;3.998;2023-02-25T16:06:31;7.00;99.90
48946;DHT22;34999;50.940;3.998;2023-02-25T16:09:05;7.00;99.90
48946;DHT22;34999;50.940;3.998;2023-02-25T16:11:36;7.10;99.90
48946;DHT22;34999;50.940;3.998;2023-02-25T16:17:54;7.10;99.90
48946;DHT22;34999;50.940;3.998;2023-02-25T16:24:13;6.90;99.90
48946;DHT22;34999;50.940;3.998;2023-02-25T16:26:45;6.70;99.90
48946;DHT22;34999;50.940;3.998;2023-02-25T16:29:32;6.60;99.90
48946;DHT22;34999;50.940;3.998;2023-02-25T16:32:08;6.50;99.90
48946;DHT22;34999;50.940;3.998;2023-02-25T16:34:45;6.40;99.90
48946;DHT22;34999;50.940;3.998;2023-02-25T16:37:24;6.40;99.90
48946;DHT22;34999;50.940;3.998;2023-02-25T16:39:56;6.30;99.90
48946;DHT22;34999;50.940;3.998;2023-02-25T16:42:24;6.20;99.90
48946;DHT22;34999;50.940;3.998;2023-02-25T16:44:57;6.10;99.90
48946;DHT22;34999;50.940;3.998;2023-02-25T16:47:29;6.00;99.90
48946;DHT22;34999;50.940;3.998;2023-02-25T16:50:01;5.90;99.90
48946;DHT22;34999;50.940;3.998;2023-02-25T16:52:32;5.90;99.90
48946;DHT22;34999;50.940;3.998;2023-02-25T16:55:05;5.80;99.90
48946;DHT22;34999;50.940;3.998;2023-02-25T16:57:38;5.80;99.90
48946;DHT22;34999;50.940;3.998;2023-02-25T17:00:13;5.70;99.90
48946;DHT22;34999;50.940;3.998;2023-02-25T17:02:45;5.60;99.90
48946;DHT22;34999;50.940;3.998;2023-02-25T17:05:25;5.60;99.90
48946;DHT22;34999;50.940;3.998;2023-02-25T17:07:56;5.50;99.90
48946;DHT22;34999;50.940;3.998;2023-02-25T17:10:29;5.50;99.90
48946;DHT22;34999;50.940;3.998;2023-02-25T17:13:00;5.50;99.90
48946;DHT22;34999;50.940;3.998;2023-02-25T17:15:31;5.40;99.90
48946;DHT22;34999;50.940;3.998;2023-02-25T17:18:05;5.30;99.90
48946;DHT22;34999;50.940;3.998;2023-02-25T17:20:35;5.20;99.90
48946;DHT22;34999;50.940;3.998;2023-02-25T17:23:07;5.20;99.90
48946;DHT22;34999;50.940;3.998;2023-02-25T17:25:40;5.10;99.90
48946;DHT22;34999;50.940;3.998;2023-02-25T17:28:17;5.10;99.90
48946;DHT22;34999;50.940;3.998;2023-02-25T17:30:47;4.90;99.90
48946;DHT22;34999;50.940;3.998;2023-02-25T17:33:21;4.90;99.90
48946;DHT22;34999;50.940;3.998;2023-02-25T17:35:56;4.80;99.90
48946;DHT22;34999;50.940;3.998;2023-02-25T17:38:27;4.80;99.90
48946;DHT22;34999;50.940;3.998;2023-02-25T17:40:58;4.70;99.90
48946;DHT22;34999;50.940;3.998;2023-02-25T17:43:33;4.60;99.90
48946;DHT22;34999;50.940;3.998;2023-02-25T17:46:14;4.60;99.90
48946;DHT22;34999;50.940;3.998;2023-02-25T17:48:49;4.50;99.90
48946;DHT22;34999;50.940;3.998;2023-02-25T17:51:27;4.40;99.90
48946;DHT22;34999;50.940;3.998;2023-02-25T17:54:02;4.40;99.90
48946;DHT22;34999;50.940;3.998;2023-02-25T17:56:34;4.30;99.90
48946;DHT22;34999;50.940;3.998;2023-02-25T17:59:04;4.30;99.90
48946;DHT22;34999;50.940;3.998;2023-02-25T18:01:46;4.20;99.90
48946;DHT22;34999;50.940;3.998;2023-02-25T18:04:23;4.20;99.90
48946;DHT22;34999;50.940;3.998;2023-02-25T18:06:52;4.20;99.90
48946;DHT22;34999;50.940;3.998;2023-02-25T18:09:30;4.20;99.90
48946;DHT22;34999;50.940;3.998;2023-02-25T18:12:01;4.10;99.90
48946;DHT22;34999;50.940;3.998;2023-02-25T18:14:33;4.10;99.90
48946;DHT22;34999;50.940;3.998;2023-02-25T18:17:12;4.00;99.90
48946;DHT22;34999;50.940;3.998;2023-02-25T18:19:42;4.00;99.90
48946;DHT22;34999;50.940;3.998;2023-02-25T18:22:29;3.90;99.90
48946;DHT22;34999;50.940;3.998;2023-02-25T18:25:00;3.80;99.90
48946;DHT22;34999;50.940;3.998;2023-02-25T18:27:31;3.70;99.90
48946;DHT22;34999;50.940;3.998;2023-02-25T18:30:18;3.70;99.90
48946;DHT22;34999;50.940;3.998;2023-02-25T18:32:47;3.60;99.90
48946;DHT22;34999;50.940;3.998;2023-02-25T18:35:16;3.60;99.90
48946;DHT22;34999;50.940;3.998;2023-02-25T18:37:47;3.60;99.90
48946;DHT22;34999;50.940;3.998;2023-02-25T18:40:20;3.50;99.90
48946;DHT22;34999;50.940;3.998;2023-02-25T18:42:51;3.50;99.90
48946;DHT22;34999;50.940;3.998;2023-02-25T18:45:23;3.50;99.90
48946;DHT22;34999;50.940;3.998;2023-02-25T18:47:53;3.50;99.90
48946;DHT22;34999;50.940;3.998;2023-02-25T18:50:23;3.40;99.90